createdAt,value
2017-08-05T10:34:51.004Z,66.30
2017-08-05T10:37:25.695Z,65.80
2017-08-05T10:40:00.068Z,65.90
2017-08-05T10:42:34.337Z,65.60
2017-08-05T10:45:08.783Z,64.60
2017-08-05T10:47:43.792Z,64.50
2017-08-05T10:50:18.131Z,64.40
2017-08-05T10:52:52.282Z,64.40
2017-08-05T10:55:26.625Z,64.60
2017-08-05T10:58:01.251Z,63.90
2017-08-05T11:00:35.580Z,64.30
2017-08-05T11:03:09.701Z,65.40
2017-08-05T11:05:44.130Z,64.70
2017-08-05T11:08:18.381Z,64.60
2017-08-05T11:10:58.032Z,65.30
2017-08-05T11:13:32.310Z,65.70
2017-08-05T11:16:09.014Z,65.70
2017-08-05T11:18:43.309Z,65.60
2017-08-05T11:24:17.465Z,64.90
2017-08-05T11:26:51.886Z,65.30
2017-08-05T11:29:31.977Z,64.60
2017-08-05T11:32:06.260Z,63.30
2017-08-05T11:34:40.565Z,63.60
2017-08-05T11:37:14.672Z,64.20
2017-08-05T11:39:54.732Z,65.00
2017-08-05T11:42:23.883Z,66.10
2017-08-05T11:44:53.963Z,66.20
2017-08-05T11:47:22.276Z,64.60
2017-08-05T11:49:52.873Z,63.20
2017-08-05T11:52:21.256Z,62.10
2017-08-05T11:54:49.527Z,62.30
2017-08-05T11:57:17.949Z,62.30
2017-08-05T11:59:52.290Z,61.70
2017-08-05T12:02:26.661Z,60.60
2017-08-05T12:05:01.042Z,60.20
2017-08-05T12:07:35.177Z,60.30
2017-08-05T12:10:09.991Z,59.90
2017-08-05T12:12:44.662Z,59.20
2017-08-05T12:15:18.759Z,59.00
2017-08-05T12:17:48.291Z,59.60
2017-08-05T12:20:18.357Z,58.10
2017-08-05T12:22:46.608Z,58.70
2017-08-05T12:25:14.928Z,59.20
2017-08-05T12:27:43.217Z,58.90
2017-08-05T12:30:11.619Z,59.10
2017-08-05T12:32:40.399Z,60.80
2017-08-05T12:35:08.801Z,60.80
2017-08-05T12:37:37.125Z,60.90
2017-08-05T12:40:05.497Z,59.90
2017-08-05T12:42:33.959Z,59.30
2017-08-05T12:45:02.274Z,59.00
2017-08-05T12:47:30.529Z,58.90
2017-08-05T12:49:58.829Z,59.50
2017-08-05T12:52:27.521Z,61.70
2017-08-05T12:54:55.769Z,61.70
2017-08-05T12:57:29.946Z,62.20
2017-08-05T13:00:04.603Z,61.90
2017-08-05T13:02:39.059Z,62.00
2017-08-05T13:05:13.555Z,62.00
2017-08-05T13:07:47.745Z,62.50
2017-08-05T13:10:22.088Z,62.60
2017-08-05T13:12:56.396Z,62.00
2017-08-05T13:15:30.633Z,60.90
2017-08-05T13:18:04.808Z,61.00
2017-08-05T13:20:39.044Z,61.40
2017-08-05T13:23:13.429Z,61.40
2017-08-05T13:25:47.669Z,61.00
2017-08-05T13:28:15.967Z,61.10
2017-08-05T13:30:44.261Z,61.50
2017-08-05T13:33:12.536Z,61.90
2017-08-05T13:35:40.810Z,62.60
2017-08-05T13:38:09.517Z,63.10
2017-08-05T13:40:43.666Z,63.10
2017-08-05T13:43:17.793Z,63.90
2017-08-05T13:45:52.594Z,64.80
2017-08-05T13:48:26.800Z,65.30
2017-08-05T13:51:00.980Z,64.30
2017-08-05T13:53:35.257Z,64.40
2017-08-05T13:56:09.564Z,63.90
2017-08-05T13:58:46.843Z,62.90
2017-08-05T14:01:21.146Z,62.10
2017-08-05T14:03:55.253Z,59.90
2017-08-05T14:06:32.379Z,60.00
2017-08-05T14:11:58.422Z,58.30
2017-08-05T14:14:32.821Z,59.40
2017-08-05T14:17:11.853Z,61.50
2017-08-05T14:19:45.941Z,62.30
2017-08-05T14:22:20.814Z,62.10
2017-08-05T14:24:55.041Z,62.20
2017-08-05T14:27:32.819Z,62.10
2017-08-05T14:30:07.208Z,63.00
2017-08-05T14:32:41.749Z,63.10
2017-08-05T14:35:16.671Z,63.10
2017-08-05T14:38:02.413Z,63.60
2017-08-05T14:40:36.715Z,63.40
2017-08-05T14:43:11.052Z,63.10
2017-08-05T14:45:47.551Z,63.20
2017-08-05T14:48:22.048Z,63.50
2017-08-05T14:50:56.513Z,62.90
2017-08-05T14:53:30.905Z,62.50
2017-08-05T14:56:05.222Z,62.50
2017-08-05T14:58:43.649Z,61.10
2017-08-05T15:01:18.127Z,58.60
2017-08-05T15:03:52.423Z,58.20
2017-08-05T15:06:27.134Z,56.80
2017-08-05T15:09:01.302Z,56.80
2017-08-05T15:14:18.201Z,56.70
2017-08-05T15:16:52.891Z,56.90
2017-08-05T15:19:27.249Z,56.90
2017-08-05T15:22:01.532Z,55.80
2017-08-05T15:24:36.363Z,57.70
2017-08-05T15:27:10.531Z,57.70
2017-08-05T15:29:45.151Z,57.40
2017-08-05T15:32:19.555Z,56.00
2017-08-05T15:34:53.834Z,57.00
2017-08-05T15:37:28.933Z,57.90
2017-08-05T15:40:12.837Z,57.10
2017-08-05T15:42:47.627Z,55.30
2017-08-05T15:45:21.936Z,54.70
2017-08-05T15:47:56.977Z,54.50
2017-08-05T15:50:31.454Z,53.30
2017-08-05T15:53:05.570Z,52.10
2017-08-05T15:55:39.928Z,52.80
2017-08-05T15:58:14.184Z,54.30
2017-08-05T16:00:48.604Z,52.80
2017-08-05T16:03:24.096Z,52.30
2017-08-05T16:05:58.958Z,52.50
2017-08-05T16:08:33.098Z,53.50
2017-08-05T16:11:07.805Z,54.00
2017-08-05T16:13:36.095Z,54.00
2017-08-05T16:16:04.409Z,53.60
2017-08-05T16:18:32.753Z,54.80
2017-08-05T16:21:01.962Z,56.10
2017-08-05T16:23:31.982Z,55.80
2017-08-05T16:26:01.147Z,55.80
2017-08-05T16:28:29.491Z,55.90
2017-08-05T16:30:58.693Z,55.60
2017-08-05T16:35:59.861Z,55.90
2017-08-05T16:38:28.216Z,56.80
2017-08-05T16:40:56.885Z,57.20
2017-08-05T16:43:26.018Z,57.20
2017-08-05T16:45:54.308Z,56.40
2017-08-05T16:48:22.605Z,56.80
2017-08-05T16:50:50.976Z,57.20
2017-08-05T16:53:19.651Z,57.90
2017-08-05T16:55:48.557Z,58.80
2017-08-05T16:58:17.058Z,59.70
2017-08-05T17:00:45.364Z,60.20
2017-08-05T17:03:14.683Z,59.80
2017-08-05T17:05:42.916Z,60.00
2017-08-05T17:08:11.333Z,59.90
2017-08-05T17:10:39.693Z,60.20
2017-08-05T17:13:08.033Z,60.80
2017-08-05T17:15:40.116Z,60.70
2017-08-05T17:18:09.281Z,61.50
2017-08-05T17:20:38.731Z,61.50
2017-08-05T17:25:39.683Z,61.50
2017-08-05T17:28:08.291Z,61.80
2017-08-05T17:30:36.683Z,61.80
2017-08-05T17:33:05.256Z,62.30
2017-08-05T17:35:33.568Z,62.60
2017-08-05T17:38:02.689Z,62.50
2017-08-05T17:40:31.072Z,63.10
2017-08-05T17:42:59.397Z,63.20
2017-08-05T17:45:27.802Z,63.80
2017-08-05T17:47:56.662Z,64.10
2017-08-05T17:50:25.170Z,64.40
2017-08-05T17:52:54.064Z,64.70
2017-08-05T17:55:22.912Z,64.90
2017-08-05T17:57:51.689Z,65.10
2017-08-05T18:00:20.352Z,65.30
2017-08-05T18:02:48.793Z,65.30
2017-08-05T18:05:17.165Z,65.40
2017-08-05T18:07:45.461Z,65.30
2017-08-05T18:10:13.757Z,65.60
2017-08-05T18:12:42.055Z,65.80
2017-08-05T18:15:10.426Z,65.90
2017-08-05T18:17:38.734Z,65.90
2017-08-05T18:20:06.994Z,66.10
2017-08-05T18:22:35.309Z,66.30
2017-08-05T18:25:03.597Z,66.70
2017-08-05T18:27:31.933Z,66.80
2017-08-05T18:30:00.523Z,67.00
2017-08-05T18:32:29.617Z,67.10
2017-08-05T18:34:58.345Z,67.30
2017-08-05T18:37:26.667Z,67.40
2017-08-05T18:39:55.008Z,67.40
2017-08-05T18:42:23.985Z,67.70
2017-08-05T18:44:52.228Z,67.80
2017-08-05T18:47:20.560Z,67.80
2017-08-05T18:49:49.214Z,68.10
2017-08-05T18:52:17.573Z,68.40
2017-08-05T18:54:45.958Z,69.20
2017-08-05T18:57:14.220Z,70.50
2017-08-05T18:59:43.433Z,71.50
2017-08-05T19:02:12.263Z,73.20
2017-08-05T19:04:40.657Z,75.80
2017-08-05T19:07:08.946Z,73.70
2017-08-05T19:09:37.294Z,74.20
2017-08-05T19:12:05.650Z,75.70
2017-08-05T19:14:33.980Z,75.30
2017-08-05T19:17:02.266Z,75.10
2017-08-05T19:19:30.543Z,75.30
2017-08-05T19:21:59.623Z,75.80
2017-08-05T19:24:28.490Z,75.80
2017-08-05T19:26:56.753Z,75.80
2017-08-05T19:37:02.802Z,78.60
2017-08-05T19:39:31.927Z,81.50
2017-08-05T19:42:00.355Z,84.50
2017-08-05T19:44:29.144Z,88.80
2017-08-05T19:46:57.950Z,93.40
2017-08-05T19:49:26.579Z,97.90
2017-08-05T19:51:54.882Z,99.50
2017-08-05T19:54:23.474Z,99.50
2017-08-05T20:09:42.485Z,99.50
2017-08-05T20:12:10.758Z,99.50
2017-08-05T20:14:42.753Z,99.50
2017-08-05T20:19:45.213Z,99.50
2017-08-05T20:22:13.792Z,99.50
2017-08-05T20:24:50.967Z,99.40
2017-08-05T20:27:25.271Z,99.50
2017-08-05T20:29:59.410Z,97.00
2017-08-05T20:32:33.757Z,98.30
2017-08-05T20:35:08.242Z,97.50
2017-08-05T20:42:59.137Z,95.40
2017-08-05T20:48:06.123Z,96.00
2017-08-05T20:50:34.417Z,95.50
2017-08-05T20:53:02.690Z,96.00
2017-08-05T20:55:31.791Z,96.20
2017-08-05T20:58:00.438Z,96.30
2017-08-05T21:03:02.236Z,96.80
2017-08-05T21:10:36.115Z,97.70
2017-08-05T21:13:08.186Z,98.00
2017-08-05T21:15:36.907Z,98.80
2017-08-05T21:18:05.165Z,98.90
2017-08-05T21:20:34.237Z,98.50
2017-08-05T21:23:02.666Z,99.50
2017-08-05T21:25:30.973Z,99.50
2017-08-05T21:27:59.268Z,99.50
2017-08-05T21:30:27.649Z,98.90
2017-08-05T21:32:57.301Z,98.20
2017-08-05T21:35:26.254Z,99.30
2017-08-05T21:37:54.929Z,99.40
2017-08-05T21:40:23.311Z,98.90
2017-08-05T21:42:54.062Z,98.90
2017-08-05T21:45:25.934Z,97.60
2017-08-05T21:47:54.250Z,98.20
2017-08-05T21:50:22.616Z,98.20
2017-08-05T21:52:50.876Z,97.30
2017-08-05T21:55:19.136Z,96.30
2017-08-05T21:57:47.389Z,98.00
2017-08-05T22:00:17.206Z,97.20
2017-08-05T22:02:45.813Z,98.00
2017-08-05T22:05:14.069Z,98.10
2017-08-05T22:07:42.434Z,96.70
2017-08-05T22:10:10.702Z,97.20
2017-08-05T22:12:39.123Z,96.30
2017-08-05T22:15:07.508Z,95.80
2017-08-05T22:17:35.770Z,95.40
2017-08-05T22:20:04.053Z,95.40
2017-08-05T22:22:32.323Z,94.90
2017-08-05T22:25:00.566Z,95.00
2017-08-05T22:27:28.972Z,94.20
2017-08-05T22:29:57.919Z,95.30
2017-08-05T22:32:26.173Z,94.50
2017-08-05T22:34:54.493Z,94.40
2017-08-05T22:37:22.748Z,94.20
2017-08-05T22:39:51.037Z,94.60
2017-08-05T22:42:19.279Z,94.90
2017-08-05T22:44:48.253Z,94.80
2017-08-05T22:47:16.492Z,95.00
2017-08-05T22:49:44.745Z,95.40
2017-08-05T22:52:13.020Z,95.10
2017-08-05T22:54:41.272Z,95.10
2017-08-05T22:57:09.517Z,95.10
2017-08-05T22:59:38.071Z,95.10
2017-08-05T23:02:06.307Z,95.30
2017-08-05T23:04:35.118Z,95.30
2017-08-05T23:07:03.366Z,92.80
2017-08-05T23:09:31.619Z,92.50
2017-08-05T23:11:59.901Z,92.00
2017-08-05T23:14:28.430Z,91.50
2017-08-05T23:16:56.737Z,91.50
2017-08-05T23:19:25.011Z,91.70
2017-08-05T23:21:53.276Z,91.80
2017-08-05T23:24:21.691Z,92.50
2017-08-05T23:26:50.230Z,93.30
2017-08-05T23:29:18.933Z,94.80
2017-08-05T23:31:47.179Z,94.80
2017-08-05T23:34:15.431Z,94.60
2017-08-05T23:36:43.680Z,96.00
2017-08-05T23:39:12.323Z,96.60
2017-08-05T23:41:40.609Z,96.60
2017-08-05T23:44:09.248Z,96.90
2017-08-05T23:46:43.572Z,96.90
2017-08-05T23:49:18.176Z,97.00
2017-08-05T23:51:52.588Z,97.00
2017-08-05T23:54:26.747Z,96.10
2017-08-05T23:57:00.955Z,95.40
2017-08-05T23:59:35.236Z,94.20
